createdAt,value
2023-02-12T00:01:54.384Z,100.00
2023-02-12T00:04:55.957Z,100.00
2023-02-12T00:07:57.657Z,100.00
2023-02-12T00:10:59.315Z,100.00
2023-02-12T00:14:02.326Z,100.00
2023-02-12T00:17:04.127Z,100.00
2023-02-12T00:20:06.315Z,100.00
2023-02-12T00:23:08.069Z,100.00
2023-02-12T00:26:12.176Z,100.00
2023-02-12T00:29:19.297Z,100.00
2023-02-12T00:32:20.984Z,100.00
2023-02-12T00:35:22.588Z,100.00
2023-02-12T00:38:25.225Z,100.00
2023-02-12T00:41:27.690Z,100.00
2023-02-12T00:44:29.663Z,100.00
2023-02-12T00:47:31.249Z,100.00
2023-02-12T00:50:32.832Z,100.00
2023-02-12T00:53:35.943Z,100.00
2023-02-12T00:56:37.661Z,100.00
2023-02-12T00:59:40.295Z,100.00
2023-02-12T01:02:42.129Z,100.00
2023-02-12T01:05:43.951Z,100.00
2023-02-12T01:08:45.577Z,100.00
2023-02-12T01:11:47.254Z,100.00
2023-02-12T01:14:48.822Z,100.00
2023-02-12T01:17:54.010Z,100.00
2023-02-12T01:20:55.683Z,100.00
2023-02-12T01:23:58.911Z,100.00
2023-02-12T01:27:00.513Z,100.00
2023-02-12T01:30:04.378Z,100.00
2023-02-12T01:33:05.990Z,100.00
2023-02-12T01:36:09.536Z,100.00
2023-02-12T01:39:12.336Z,100.00
2023-02-12T01:42:15.216Z,100.00
2023-02-12T01:45:16.742Z,100.00
2023-02-12T01:48:20.003Z,100.00
2023-02-12T01:51:24.025Z,100.00
2023-02-12T01:54:26.990Z,100.00
2023-02-12T01:57:32.122Z,100.00
2023-02-12T02:00:33.770Z,100.00
2023-02-12T02:03:38.603Z,100.00
2023-02-12T02:06:54.105Z,100.00
2023-02-12T02:09:56.809Z,100.00
2023-02-12T02:13:21.248Z,100.00
2023-02-12T02:16:27.370Z,100.00
2023-02-12T02:20:02.809Z,100.00
2023-02-12T02:23:26.255Z,100.00
2023-02-12T02:27:07.484Z,100.00
2023-02-12T02:30:33.261Z,100.00
2023-02-12T02:33:43.884Z,100.00
2023-02-12T02:37:08.496Z,100.00
2023-02-12T02:40:17.963Z,100.00
2023-02-12T02:43:27.774Z,100.00
2023-02-12T02:46:43.572Z,100.00
2023-02-12T02:49:51.031Z,100.00
2023-02-12T02:53:05.478Z,100.00
2023-02-12T02:56:12.199Z,100.00
2023-02-12T02:59:24.283Z,100.00
2023-02-12T03:02:33.422Z,100.00
2023-02-12T03:05:40.286Z,100.00
2023-02-12T03:08:52.975Z,100.00
2023-02-12T03:12:03.375Z,100.00
2023-02-12T03:15:26.937Z,100.00
2023-02-12T03:18:34.096Z,100.00
2023-02-12T03:21:44.129Z,100.00
2023-02-12T03:24:53.940Z,100.00
2023-02-12T03:28:01.732Z,100.00
2023-02-12T03:31:09.153Z,100.00
2023-02-12T03:34:26.265Z,100.00
2023-02-12T03:37:36.286Z,100.00
2023-02-12T03:40:43.109Z,100.00
2023-02-12T03:43:55.885Z,100.00
2023-02-12T03:47:15.558Z,100.00
2023-02-12T03:50:35.590Z,100.00
2023-02-12T03:53:37.551Z,100.00
2023-02-12T03:56:52.200Z,100.00
2023-02-12T03:59:53.827Z,100.00
2023-02-12T04:02:55.871Z,100.00
2023-02-12T04:05:57.674Z,100.00
2023-02-12T04:09:04.573Z,100.00
2023-02-12T04:12:34.350Z,100.00
2023-02-12T04:16:02.071Z,100.00
2023-02-12T04:19:04.100Z,100.00
2023-02-12T04:22:18.077Z,100.00
2023-02-12T04:25:42.707Z,100.00
2023-02-12T04:29:11.814Z,100.00
2023-02-12T04:32:24.966Z,100.00
2023-02-12T04:35:29.999Z,100.00
2023-02-12T04:38:59.231Z,100.00
2023-02-12T04:42:02.081Z,100.00
2023-02-12T04:45:03.883Z,100.00
2023-02-12T04:48:06.670Z,100.00
2023-02-12T04:51:10.340Z,100.00
2023-02-12T04:54:13.247Z,100.00
2023-02-12T04:57:14.867Z,100.00
2023-02-12T05:00:16.972Z,100.00
2023-02-12T05:03:18.662Z,100.00
2023-02-12T05:06:20.429Z,100.00
2023-02-12T05:09:22.127Z,100.00
2023-02-12T05:12:23.799Z,100.00
2023-02-12T05:15:25.442Z,100.00
2023-02-12T05:18:27.074Z,100.00
2023-02-12T05:21:28.783Z,100.00
2023-02-12T05:24:30.542Z,100.00
2023-02-12T05:27:32.322Z,100.00
2023-02-12T05:30:34.081Z,100.00
2023-02-12T05:33:35.675Z,100.00
2023-02-12T05:36:37.351Z,100.00
2023-02-12T05:39:38.987Z,100.00
2023-02-12T05:42:40.620Z,100.00
2023-02-12T05:45:45.008Z,100.00
2023-02-12T05:48:47.318Z,100.00
2023-02-12T05:51:49.487Z,100.00
2023-02-12T05:54:51.273Z,100.00
2023-02-12T05:57:52.908Z,100.00
2023-02-12T06:00:54.492Z,100.00
2023-02-12T06:03:56.229Z,100.00
2023-02-12T06:06:57.841Z,100.00
2023-02-12T06:09:59.483Z,100.00
2023-02-12T06:13:01.105Z,100.00
2023-02-12T06:16:02.886Z,100.00
2023-02-12T06:19:05.698Z,100.00
2023-02-12T06:22:07.354Z,100.00
2023-02-12T06:25:08.974Z,100.00
2023-02-12T06:28:10.614Z,100.00
2023-02-12T06:31:33.644Z,100.00
2023-02-12T06:34:35.360Z,100.00
2023-02-12T06:37:38.236Z,100.00
2023-02-12T06:40:40.015Z,100.00
2023-02-12T06:43:41.907Z,100.00
2023-02-12T06:46:43.595Z,100.00
2023-02-12T06:49:45.260Z,100.00
2023-02-12T06:52:46.930Z,100.00
2023-02-12T06:55:48.536Z,100.00
2023-02-12T06:58:58.469Z,100.00
2023-02-12T07:02:00.131Z,100.00
2023-02-12T07:05:01.863Z,100.00
2023-02-12T07:08:03.473Z,100.00
2023-02-12T07:11:06.259Z,100.00
2023-02-12T07:14:08.089Z,100.00
2023-02-12T07:17:10.161Z,100.00
2023-02-12T07:20:12.240Z,100.00
2023-02-12T07:23:14.272Z,100.00
2023-02-12T07:26:16.307Z,100.00
2023-02-12T07:29:18.005Z,100.00
2023-02-12T07:32:19.661Z,100.00
2023-02-12T07:35:21.295Z,100.00
2023-02-12T07:38:22.918Z,100.00
2023-02-12T07:41:27.394Z,100.00
2023-02-12T07:44:29.353Z,100.00
2023-02-12T07:47:31.090Z,100.00
2023-02-12T07:50:32.759Z,100.00
2023-02-12T07:53:35.008Z,100.00
2023-02-12T07:56:39.056Z,100.00
2023-02-12T07:59:40.651Z,100.00
2023-02-12T08:02:42.410Z,100.00
2023-02-12T08:05:44.018Z,100.00
2023-02-12T08:08:51.570Z,100.00
2023-02-12T08:11:53.665Z,100.00
2023-02-12T08:14:55.274Z,99.12
2023-02-12T08:17:56.876Z,96.89
2023-02-12T08:21:09.627Z,95.25
2023-02-12T08:24:12.015Z,94.46
2023-02-12T08:27:13.656Z,93.07
2023-02-12T08:30:15.629Z,92.03
2023-02-12T08:33:17.339Z,92.70
2023-02-12T08:36:22.955Z,91.44
2023-02-12T08:39:26.568Z,91.38
2023-02-12T08:42:28.302Z,91.99
2023-02-12T08:45:29.891Z,92.71
2023-02-12T08:48:32.211Z,91.69
2023-02-12T08:51:36.154Z,92.76
2023-02-12T08:54:37.770Z,91.89
2023-02-12T08:57:39.360Z,92.25
2023-02-12T09:00:41.038Z,91.71
2023-02-12T09:03:44.092Z,91.27
2023-02-12T09:06:46.568Z,91.58
2023-02-12T09:09:48.281Z,90.54
2023-02-12T09:12:49.904Z,90.55
2023-02-12T09:15:51.569Z,87.66
2023-02-12T09:18:53.377Z,89.29
2023-02-12T09:21:56.587Z,88.00
2023-02-12T09:24:58.531Z,86.02
2023-02-12T09:28:03.553Z,85.94
2023-02-12T09:31:23.211Z,86.21
2023-02-12T09:34:24.991Z,84.81
2023-02-12T09:37:26.726Z,83.84
2023-02-12T09:41:02.321Z,82.43
2023-02-12T09:44:27.089Z,82.35
2023-02-12T09:47:52.381Z,79.82
2023-02-12T09:50:56.334Z,79.49
2023-02-12T09:54:07.425Z,81.02
2023-02-12T09:57:36.161Z,81.27
2023-02-12T10:00:39.122Z,79.74
2023-02-12T10:03:41.334Z,79.93
2023-02-12T10:06:57.511Z,79.24
2023-02-12T10:10:26.907Z,78.18
2023-02-12T10:13:43.888Z,79.04
2023-02-12T10:16:45.396Z,76.78
2023-02-12T10:20:01.061Z,76.97
2023-02-12T10:23:18.223Z,75.50
2023-02-12T10:26:26.013Z,77.29
2023-02-12T10:29:34.069Z,75.97
2023-02-12T10:32:38.074Z,74.14
2023-02-12T10:35:49.832Z,76.93
2023-02-12T10:38:57.825Z,76.84
2023-02-12T10:42:21.533Z,76.17
2023-02-12T10:45:35.829Z,77.34
2023-02-12T10:48:40.200Z,76.52
2023-02-12T10:52:03.570Z,76.48
2023-02-12T10:55:25.801Z,75.95
2023-02-12T10:58:27.484Z,75.29
2023-02-12T11:01:35.574Z,74.73
2023-02-12T11:04:37.288Z,72.60
2023-02-12T11:07:49.483Z,70.87
2023-02-12T11:10:52.417Z,71.76
2023-02-12T11:13:58.441Z,68.85
2023-02-12T11:17:02.639Z,71.16
2023-02-12T11:20:04.292Z,72.67
2023-02-12T11:23:22.696Z,71.98
2023-02-12T11:26:30.448Z,73.35
2023-02-12T11:29:33.757Z,74.03
2023-02-12T11:32:35.735Z,70.66
2023-02-12T11:35:37.827Z,69.51
2023-02-12T11:38:50.143Z,68.78
2023-02-12T11:42:20.119Z,71.48
2023-02-12T11:45:26.462Z,71.38
2023-02-12T11:48:39.603Z,68.75
2023-02-12T11:51:41.389Z,70.34
2023-02-12T11:54:48.354Z,71.28
2023-02-12T11:57:52.932Z,68.63
2023-02-12T12:01:22.077Z,70.83
2023-02-12T12:04:27.521Z,70.58
2023-02-12T12:07:34.370Z,67.90
2023-02-12T12:10:55.522Z,67.03
2023-02-12T12:14:13.701Z,70.07
2023-02-12T12:17:35.938Z,65.07
2023-02-12T12:21:18.048Z,69.17
2023-02-12T12:24:43.995Z,67.99
2023-02-12T12:28:03.648Z,65.06
2023-02-12T12:31:05.472Z,63.51
2023-02-12T12:34:13.177Z,65.16
2023-02-12T12:37:48.648Z,66.82
2023-02-12T12:41:02.550Z,65.84
2023-02-12T12:44:14.737Z,62.91
2023-02-12T12:47:45.799Z,61.84
2023-02-12T12:51:13.385Z,64.01
2023-02-12T12:54:28.431Z,61.54
2023-02-12T12:57:42.111Z,62.24
2023-02-12T13:01:04.036Z,65.32
2023-02-12T13:04:31.646Z,62.67
2023-02-12T13:07:58.954Z,65.59
2023-02-12T13:11:11.486Z,64.49
2023-02-12T13:14:43.611Z,63.94
2023-02-12T13:18:02.314Z,62.16
2023-02-12T13:21:13.505Z,63.26
2023-02-12T13:24:37.160Z,62.94
2023-02-12T13:27:43.706Z,63.64
2023-02-12T13:30:49.633Z,60.54
2023-02-12T13:34:02.311Z,60.09
2023-02-12T13:37:06.886Z,63.40
2023-02-12T13:40:16.049Z,60.33
2023-02-12T13:43:47.285Z,59.75
2023-02-12T13:46:57.331Z,59.32
2023-02-12T13:50:24.640Z,59.39
2023-02-12T13:53:30.618Z,58.76
2023-02-12T13:57:03.526Z,55.41
2023-02-12T14:00:09.688Z,57.76
2023-02-12T14:03:11.908Z,57.83
2023-02-12T14:06:22.251Z,56.84
2023-02-12T14:09:44.258Z,60.09
2023-02-12T14:12:47.276Z,58.39
2023-02-12T14:15:58.796Z,57.80
2023-02-12T14:19:37.833Z,59.79
2023-02-12T14:22:42.441Z,58.41
2023-02-12T14:25:48.651Z,57.27
2023-02-12T14:28:57.738Z,58.93
2023-02-12T14:32:00.198Z,57.97
2023-02-12T14:35:30.892Z,57.85
2023-02-12T14:38:42.643Z,56.61
2023-02-12T14:42:10.877Z,55.38
2023-02-12T14:45:28.925Z,56.96
2023-02-12T14:48:50.674Z,57.53
2023-02-12T14:51:59.981Z,56.29
2023-02-12T14:55:06.637Z,56.33
2023-02-12T14:58:21.297Z,55.25
2023-02-12T15:01:33.913Z,56.36
2023-02-12T15:04:38.541Z,56.51
2023-02-12T15:07:59.840Z,57.58
2023-02-12T15:11:13.842Z,58.34
2023-02-12T15:14:20.626Z,57.17
2023-02-12T15:17:28.219Z,57.04
2023-02-12T15:20:37.982Z,58.64
2023-02-12T15:23:42.683Z,58.44
2023-02-12T15:26:48.376Z,60.22
2023-02-12T15:29:55.548Z,60.94
2023-02-12T15:33:00.400Z,61.06
2023-02-12T15:36:03.737Z,61.31
2023-02-12T15:39:09.077Z,61.21
2023-02-12T15:42:34.368Z,61.74
2023-02-12T15:45:36.730Z,61.98
2023-02-12T15:48:39.275Z,63.91
2023-02-12T15:51:43.880Z,64.05
2023-02-12T15:54:47.385Z,64.25
2023-02-12T15:58:00.022Z,64.47
2023-02-12T16:01:05.339Z,66.29
2023-02-12T16:04:08.782Z,66.84
2023-02-12T16:07:12.683Z,66.08
2023-02-12T16:10:16.290Z,66.22
2023-02-12T16:13:32.338Z,66.65
2023-02-12T16:16:46.245Z,67.66
2023-02-12T16:19:58.761Z,66.79
2023-02-12T16:23:06.780Z,68.23
2023-02-12T16:26:08.548Z,70.54
2023-02-12T16:29:16.718Z,71.58
2023-02-12T16:32:39.207Z,72.91
2023-02-12T16:35:40.987Z,72.65
2023-02-12T16:38:52.879Z,76.26
2023-02-12T16:41:57.285Z,78.31
2023-02-12T16:44:59.040Z,79.11
2023-02-12T16:48:08.401Z,81.02
2023-02-12T16:51:28.351Z,81.66
2023-02-12T16:54:35.515Z,81.67
2023-02-12T16:57:37.394Z,79.19
2023-02-12T17:00:39.747Z,79.97
2023-02-12T17:03:44.608Z,80.96
2023-02-12T17:06:46.463Z,80.86
2023-02-12T17:09:48.547Z,80.42
2023-02-12T17:12:52.514Z,80.51
2023-02-12T17:15:59.741Z,81.28
2023-02-12T17:19:01.707Z,81.81
2023-02-12T17:22:08.974Z,81.10
2023-02-12T17:25:12.163Z,80.95
2023-02-12T17:28:14.097Z,81.56
2023-02-12T17:31:15.910Z,81.45
2023-02-12T17:34:17.597Z,81.99
2023-02-12T17:37:25.019Z,82.67
2023-02-12T17:40:26.980Z,82.16
2023-02-12T17:43:28.719Z,83.06
2023-02-12T17:46:34.140Z,83.13
2023-02-12T17:53:28.944Z,84.15
2023-02-12T17:56:30.788Z,84.28
2023-02-12T17:59:35.133Z,85.08
2023-02-12T18:02:36.962Z,85.46
2023-02-12T18:05:42.945Z,86.08
2023-02-12T18:08:44.833Z,86.43
2023-02-12T18:11:46.456Z,87.07
2023-02-12T18:14:48.150Z,87.05
2023-02-12T18:17:58.983Z,87.83
2023-02-12T18:21:00.588Z,88.19
2023-02-12T18:24:02.587Z,88.60
2023-02-12T18:27:04.704Z,89.32
2023-02-12T18:30:09.059Z,89.99
2023-02-12T18:33:12.582Z,89.53
2023-02-12T18:36:17.215Z,90.23
2023-02-12T18:39:18.896Z,91.19
2023-02-12T18:42:27.970Z,91.85
2023-02-12T18:45:29.645Z,93.10
2023-02-12T18:48:31.511Z,92.98
2023-02-12T18:51:36.643Z,93.54
2023-02-12T18:54:38.365Z,94.33
2023-02-12T18:57:40.051Z,95.04
2023-02-12T19:00:41.701Z,95.24
2023-02-12T19:03:45.713Z,95.34
2023-02-12T19:06:53.395Z,96.50
2023-02-12T19:09:55.143Z,95.84
2023-02-12T19:12:57.289Z,96.04
2023-02-12T19:15:58.942Z,95.30
2023-02-12T19:19:02.870Z,95.88
2023-02-12T19:22:04.460Z,96.19
2023-02-12T19:25:06.713Z,96.60
2023-02-12T19:28:12.856Z,96.31
2023-02-12T19:31:15.916Z,95.81
2023-02-12T19:34:20.069Z,95.78
2023-02-12T19:37:21.718Z,95.14
2023-02-12T19:40:23.562Z,94.52
2023-02-12T19:43:25.166Z,95.28
2023-02-12T19:46:29.916Z,93.83
2023-02-12T19:49:31.757Z,93.83
2023-02-12T19:52:33.587Z,95.14
2023-02-12T19:55:35.722Z,95.66
2023-02-12T19:58:38.154Z,95.98
2023-02-12T20:01:39.915Z,95.97
2023-02-12T20:04:41.614Z,95.38
2023-02-12T20:07:43.257Z,95.17
2023-02-12T20:10:44.930Z,95.10
2023-02-12T20:13:46.791Z,95.22
2023-02-12T20:16:50.478Z,95.48
2023-02-12T20:19:52.134Z,95.77
2023-02-12T20:22:53.715Z,95.45
2023-02-12T20:25:55.394Z,96.49
2023-02-12T20:28:57.323Z,96.14
2023-02-12T20:31:59.064Z,96.37
2023-02-12T20:35:00.846Z,96.07
2023-02-12T20:38:04.072Z,96.71
2023-02-12T20:41:08.629Z,97.13
2023-02-12T20:44:15.808Z,97.27
2023-02-12T20:47:17.405Z,97.28
2023-02-12T20:50:19.162Z,97.45
2023-02-12T20:53:20.869Z,97.61
2023-02-12T20:56:28.338Z,97.20
2023-02-12T20:59:29.940Z,97.45
2023-02-12T21:02:31.597Z,96.75
2023-02-12T21:05:34.094Z,97.24
2023-02-12T21:08:37.629Z,97.57
2023-02-12T21:11:41.012Z,97.92
2023-02-12T21:14:42.707Z,97.79
2023-02-12T21:17:44.276Z,96.95
2023-02-12T21:20:46.188Z,97.09
2023-02-12T21:23:48.140Z,97.50
2023-02-12T21:26:51.483Z,97.74
2023-02-12T21:29:53.152Z,97.13
2023-02-12T21:32:55.025Z,97.34
2023-02-12T21:35:56.877Z,97.82
2023-02-12T21:38:58.687Z,97.88
2023-02-12T21:42:03.187Z,98.33
2023-02-12T21:45:06.294Z,98.81
2023-02-12T21:48:09.298Z,99.70
2023-02-12T21:51:19.564Z,99.79
2023-02-12T21:54:22.003Z,99.99
2023-02-12T21:57:24.966Z,100.00
2023-02-12T22:00:26.925Z,99.79
2023-02-12T22:03:29.041Z,100.00
2023-02-12T22:06:31.122Z,100.00
2023-02-12T22:09:32.997Z,99.84
2023-02-12T22:12:35.668Z,99.02
2023-02-12T22:15:37.904Z,100.00
2023-02-12T22:18:41.194Z,99.49
2023-02-12T22:21:44.363Z,100.00
2023-02-12T22:24:45.958Z,100.00
2023-02-12T22:27:47.586Z,100.00
2023-02-12T22:30:49.169Z,100.00
2023-02-12T22:33:53.453Z,100.00
2023-02-12T22:36:55.023Z,100.00
2023-02-12T22:39:56.679Z,100.00
2023-02-12T22:42:58.224Z,100.00
2023-02-12T22:45:59.922Z,99.62
2023-02-12T22:49:01.981Z,100.00
2023-02-12T22:52:03.747Z,100.00
2023-02-12T22:55:05.620Z,100.00
2023-02-12T22:58:07.337Z,100.00
2023-02-12T23:01:17.485Z,100.00
2023-02-12T23:04:19.450Z,100.00
2023-02-12T23:07:21.058Z,100.00
2023-02-12T23:10:22.722Z,100.00
2023-02-12T23:13:29.656Z,100.00
2023-02-12T23:16:32.225Z,100.00
2023-02-12T23:19:33.911Z,100.00
2023-02-12T23:22:35.496Z,100.00
2023-02-12T23:25:39.189Z,100.00
2023-02-12T23:28:40.841Z,100.00
2023-02-12T23:31:42.589Z,100.00
2023-02-12T23:34:44.234Z,100.00
2023-02-12T23:37:46.187Z,100.00
2023-02-12T23:40:48.565Z,100.00
2023-02-12T23:43:50.218Z,100.00
2023-02-12T23:46:53.827Z,100.00
2023-02-12T23:49:55.374Z,100.00
2023-02-12T23:52:58.075Z,100.00
2023-02-12T23:55:59.642Z,100.00
2023-02-12T23:59:06.585Z,100.00
